Time;durP1;ratioP1;P1;durP2;ratioP2;P2;SDS_P1;SDS_P2;PMS_P1;PMS_P2;Temp;Humidity;BMP_temperature;BMP_pressure;BME280_temperature;BME280_humidity;BME280_pressure;Samples;Min_cycle;Max_cycle;Signal;HPM_P1;HPM_P2
2022/08/29 00:00:24;;;;;;;3.73;3.30;;;26.20;52.10;;;;;;6120978;23;20400;-81
2022/08/29 00:02:53;;;;;;;4.33;3.50;;;26.20;52.10;;;;;;6121906;23;20646;-81
2022/08/29 00:05:24;;;;;;;3.33;2.97;;;26.20;52.10;;;;;;6121046;23;20368;-82
2022/08/29 00:07:58;;;;;;;5.30;3.57;;;26.20;52.10;;;;;;6121097;23;20401;-81
2022/08/29 00:10:24;;;;;;;8.13;3.00;;;26.20;52.10;;;;;;6099199;23;20373;-82
2022/08/29 00:12:51;;;;;;;3.57;3.10;;;26.20;52.00;;;;;;6123698;23;20391;-81
2022/08/29 00:15:17;;;;;;;4.13;2.90;;;26.20;51.90;;;;;;6122995;23;20377;-82
2022/08/29 00:17:44;;;;;;;4.27;3.10;;;26.20;51.90;;;;;;6148616;23;20373;-82
2022/08/29 00:20:14;;;;;;;3.77;2.73;;;26.10;51.80;;;;;;6122708;23;20456;-81
2022/08/29 00:22:44;;;;;;;3.70;3.30;;;26.20;51.80;;;;;;6123366;23;20384;-82
2022/08/29 00:25:11;;;;;;;5.30;3.33;;;26.10;51.60;;;;;;6099758;23;20387;-81
2022/08/29 00:27:38;;;;;;;3.27;2.70;;;26.10;51.60;;;;;;6121448;23;20370;-81
2022/08/29 00:30:11;;;;;;;3.90;3.20;;;26.10;51.50;;;;;;6122788;23;20381;-82
2022/08/29 00:32:38;;;;;;;3.20;2.80;;;26.10;51.50;;;;;;6122857;23;20384;-82
2022/08/29 00:35:08;;;;;;;4.90;2.87;;;26.10;51.40;;;;;;6122882;23;20412;-82
2022/08/29 00:37:34;;;;;;;3.63;2.57;;;26.10;51.40;;;;;;6123120;23;20384;-82
2022/08/29 00:40:07;;;;;;;6.90;3.43;;;26.10;51.30;;;;;;6122167;23;20487;-81
2022/08/29 00:42:34;;;;;;;3.27;2.60;;;26.00;51.10;;;;;;6099626;23;20405;-82
2022/08/29 00:45:05;;;;;;;4.07;2.70;;;26.00;51.20;;;;;;6122293;23;20437;-81
2022/08/29 00:47:35;;;;;;;3.30;2.70;;;26.00;51.10;;;;;;6147696;23;20377;-81
2022/08/29 00:50:06;;;;;;;3.10;2.77;;;26.00;51.10;;;;;;6121903;23;20380;-81
2022/08/29 00:52:43;;;;;;;3.83;2.70;;;26.00;51.10;;;;;;6121398;23;20381;-82
2022/08/29 00:55:26;;;;;;;;;;;;;;;;;;;;;
2022/08/29 00:57:58;;;;;;;3.10;2.00;;;25.90;50.90;;;;;;6137392;23;20384;-81
2022/08/29 01:00:45;;;;;;;4.07;3.37;;;25.90;50.90;;;;;;6146722;23;20372;-81
2022/08/29 01:03:15;;;;;;;3.30;2.43;;;25.90;50.80;;;;;;6122146;23;20397;-81
2022/08/29 01:05:41;;;;;;;3.00;2.50;;;25.90;50.80;;;;;;6121274;23;20378;-81
2022/08/29 01:08:09;;;;;;;2.97;2.23;;;25.90;50.80;;;;;;6146698;23;20373;-82
2022/08/29 01:13:30;;;;;;;2.73;2.20;;;25.90;50.70;;;;;;6126187;23;20344;-81
2022/08/29 01:15:57;;;;;;;3.20;2.90;;;25.90;50.70;;;;;;6145879;23;20377;-81
2022/08/29 01:18:25;;;;;;;2.53;2.30;;;25.80;50.50;;;;;;6146262;23;20417;-81
2022/08/29 01:21:03;;;;;;;4.60;3.10;;;25.80;50.50;;;;;;6120592;23;20816;-81
2022/08/29 01:23:40;;;;;;;7.37;2.53;;;25.80;50.50;;;;;;6121794;23;20377;-81
2022/08/29 01:26:09;;;;;;;2.57;2.37;;;25.80;50.50;;;;;;6121293;23;20396;-82
2022/08/29 01:28:42;;;;;;;3.60;2.37;;;25.80;50.50;;;;;;6121678;23;20412;-81
2022/08/29 01:31:19;;;;;;;3.53;2.37;;;25.80;50.40;;;;;;6097846;23;20792;-81
2022/08/29 01:33:50;;;;;;;4.30;2.57;;;25.80;50.40;;;;;;6121865;23;20409;-81
2022/08/29 01:36:22;;;;;;;3.00;2.10;;;25.80;50.40;;;;;;6121626;23;20437;-81
2022/08/29 01:38:48;;;;;;;3.33;2.10;;;25.80;50.40;;;;;;6122251;23;20416;-81
2022/08/29 01:41:17;;;;;;;7.00;2.47;;;25.70;50.20;;;;;;6121532;23;20400;-83
2022/08/29 01:43:49;;;;;;;10.93;2.67;;;25.70;50.10;;;;;;6121592;23;20373;-80
2022/08/29 01:46:18;;;;;;;4.20;2.00;;;25.70;50.20;;;;;;6121855;23;20446;-80
2022/08/29 01:48:48;;;;;;;5.50;2.20;;;25.70;50.20;;;;;;6121393;23;20385;-80
2022/08/29 01:51:15;;;;;;;4.27;2.37;;;25.70;50.10;;;;;;6120925;23;20412;-81
2022/08/29 01:53:45;;;;;;;2.93;2.00;;;25.70;50.10;;;;;;6121155;23;20472;-80
2022/08/29 01:56:19;;;;;;;2.70;1.93;;;25.60;50.00;;;;;;6121198;23;20652;-80
2022/08/29 01:58:47;;;;;;;2.63;1.97;;;25.70;50.10;;;;;;6121377;23;20424;-80
2022/08/29 02:01:17;;;;;;;3.03;2.33;;;25.60;50.00;;;;;;6121148;23;20381;-80
2022/08/29 02:03:44;;;;;;;3.17;2.30;;;25.60;50.10;;;;;;6120472;23;20438;-82
2022/08/29 02:06:11;;;;;;;3.40;2.00;;;25.60;50.00;;;;;;6122208;23;20388;-82
2022/08/29 02:08:39;;;;;;;4.33;2.50;;;25.60;49.90;;;;;;6120673;23;20396;-81
2022/08/29 02:11:09;;;;;;;4.73;2.27;;;25.60;50.00;;;;;;6120728;23;20460;-81
2022/08/29 02:13:41;;;;;;;4.83;2.70;;;25.60;50.00;;;;;;6120441;23;20377;-81
2022/08/29 02:16:08;;;;;;;4.67;2.37;;;25.60;49.90;;;;;;6120236;23;20381;-81
2022/08/29 02:18:37;;;;;;;4.07;2.70;;;25.60;49.90;;;;;;6146233;23;20444;-81
2022/08/29 02:21:03;;;;;;;4.83;2.40;;;25.60;49.80;;;;;;6120955;23;20384;-82
2022/08/29 02:23:30;;;;;;;5.20;2.80;;;25.60;49.80;;;;;;6121350;23;20396;-81
2022/08/29 02:25:56;;;;;;;2.70;2.17;;;25.60;49.80;;;;;;6145967;23;20437;-81
2022/08/29 02:28:25;;;;;;;3.60;2.50;;;25.60;49.80;;;;;;6120952;23;20392;-81
2022/08/29 02:30:55;;;;;;;2.63;2.00;;;25.60;49.80;;;;;;6146002;23;20400;-81
2022/08/29 02:33:21;;;;;;;3.83;2.03;;;25.50;49.70;;;;;;6120278;23;20792;-82
2022/08/29 02:35:47;;;;;;;5.13;2.50;;;25.60;49.80;;;;;;6120754;23;20400;-82
2022/08/29 02:38:15;;;;;;;2.57;1.93;;;25.60;49.70;;;;;;6119800;23;20479;-82
2022/08/29 02:40:45;;;;;;;2.93;2.47;;;25.50;50.30;;;;;;6120714;23;20381;-82
2022/08/29 02:43:11;;;;;;;2.90;2.37;;;25.50;49.60;;;;;;6146368;23;20777;-82
2022/08/29 02:45:40;;;;;;;3.47;2.33;;;25.50;49.60;;;;;;6120444;23;20448;-81
2022/08/29 02:48:06;;;;;;;3.33;2.40;;;25.50;49.70;;;;;;6120234;23;20389;-82
2022/08/29 02:50:34;;;;;;;3.77;2.40;;;25.50;49.70;;;;;;6145493;23;20361;-82
2022/08/29 02:53:00;;;;;;;3.10;2.70;;;25.50;49.70;;;;;;6121018;23;20365;-81
2022/08/29 02:55:26;;;;;;;2.57;2.17;;;25.50;49.60;;;;;;6120731;23;20386;-82
2022/08/29 02:57:53;;;;;;;3.00;2.17;;;25.50;49.60;;;;;;6120490;23;20411;-82
2022/08/29 03:00:27;;;;;;;4.83;2.27;;;25.50;49.60;;;;;;6150329;23;20365;-82
2022/08/29 03:02:55;;;;;;;3.40;2.00;;;25.50;49.70;;;;;;6125662;23;20373;-82
2022/08/29 03:05:33;;;;;;;3.97;2.53;;;25.50;49.70;;;;;;6125286;23;20388;-82
2022/08/29 03:08:09;;;;;;;5.90;2.53;;;25.40;49.60;;;;;;6050803;23;20466;-82
2022/08/29 03:10:48;;;;;;;2.30;2.10;;;25.40;49.60;;;;;;6151071;23;20375;-82
2022/08/29 03:13:20;;;;;;;2.37;2.10;;;25.40;49.50;;;;;;6147583;23;20376;-82
2022/08/29 03:16:09;;;;;;;5.87;2.77;;;25.40;49.50;;;;;;6124923;23;20368;-83
2022/08/29 03:18:43;;;;;;;3.90;1.83;;;25.50;49.60;;;;;;6125389;23;20445;-82
2022/08/29 03:21:25;;;;;;;4.63;2.40;;;25.40;49.50;;;;;;6124366;23;20361;-82
2022/08/29 03:24:14;;;;;;;2.30;2.10;;;25.40;49.50;;;;;;6101979;23;20395;-82
2022/08/29 03:26:46;;;;;;;6.20;2.57;;;25.40;49.50;;;;;;6124687;23;20389;-82
2022/08/29 03:29:17;;;;;;;2.97;2.33;;;25.40;49.40;;;;;;6125610;23;20404;-82
2022/08/29 03:31:46;;;;;;;3.67;2.50;;;25.40;49.50;;;;;;6125344;23;20374;-82
2022/08/29 03:34:14;;;;;;;4.37;2.10;;;25.40;49.40;;;;;;6151248;23;20376;-82
2022/08/29 03:36:44;;;;;;;3.23;2.63;;;25.40;49.40;;;;;;6147107;23;20444;-82
2022/08/29 03:39:18;;;;;;;3.13;2.53;;;25.40;49.40;;;;;;6146171;23;20412;-82
2022/08/29 03:41:46;;;;;;;3.10;2.50;;;25.40;49.40;;;;;;6100765;23;20361;-82
2022/08/29 03:44:24;;;;;;;3.60;2.57;;;25.40;49.30;;;;;;6100566;23;20392;-82
2022/08/29 03:47:00;;;;;;;3.80;2.60;;;25.30;49.20;;;;;;6151853;23;20400;-82
2022/08/29 03:49:29;;;;;;;3.53;2.50;;;25.30;49.20;;;;;;6104714;23;20389;-82
2022/08/29 03:51:55;;;;;;;4.10;2.50;;;25.30;49.20;;;;;;6127050;23;20381;-82
2022/08/29 03:54:26;;;;;;;4.67;2.40;;;25.30;49.20;;;;;;6126721;23;20385;-82
2022/08/29 03:57:00;;;;;;;5.73;2.60;;;25.30;49.10;;;;;;6152733;23;20365;-82
2022/08/29 03:59:34;;;;;;;3.17;2.00;;;25.30;49.20;;;;;;6127031;23;20516;-82
2022/08/29 04:02:04;;;;;;;5.00;2.50;;;25.30;49.10;;;;;;6127041;23;20401;-82
2022/08/29 04:07:21;;;;;;;2.87;2.30;;;25.30;49.00;;;;;;6131170;23;20360;-82
2022/08/29 04:09:48;;;;;;;3.27;2.67;;;25.30;49.00;;;;;;6125067;23;20387;-83
2022/08/29 04:12:23;;;;;;;4.73;2.60;;;25.30;49.00;;;;;;6126555;23;20385;-83
2022/08/29 04:14:56;;;;;;;2.63;2.40;;;25.30;49.00;;;;;;6151791;23;20365;-82
2022/08/29 04:17:28;;;;;;;3.67;2.17;;;25.30;49.00;;;;;;6101376;23;20384;-82
2022/08/29 04:19:57;;;;;;;2.63;1.87;;;25.20;48.90;;;;;;6119469;23;20436;-82
2022/08/29 04:22:59;;;;;;;3.03;2.43;;;25.20;48.90;;;;;;6126359;23;20440;-81
2022/08/29 04:25:31;;;;;;;3.97;2.60;;;25.30;49.00;;;;;;6145383;23;20407;-81
2022/08/29 04:28:00;;;;;;;4.50;2.30;;;25.20;48.90;;;;;;6151735;23;20397;-81
2022/08/29 04:30:28;;;;;;;4.00;2.47;;;25.20;49.00;;;;;;6125305;23;20365;-82
2022/08/29 04:33:37;;;;;;;2.93;2.60;;;25.20;49.00;;;;;;6092398;23;20378;-82
2022/08/29 04:36:14;;;;;;;4.57;2.17;;;25.20;49.00;;;;;;6068566;23;20383;-82
2022/08/29 04:38:45;;;;;;;3.60;2.70;;;25.20;49.00;;;;;;6091989;23;20407;-82
2022/08/29 04:41:24;;;;;;;3.67;2.37;;;25.10;48.90;;;;;;6092046;23;20489;-82
2022/08/29 04:43:56;;;;;;;3.63;2.37;;;25.10;48.90;;;;;;6092535;23;20355;-82
2022/08/29 04:46:28;;;;;;;4.53;3.03;;;25.10;48.80;;;;;;6045021;23;20419;-82
2022/08/29 04:49:04;;;;;;;3.03;2.00;;;25.10;48.90;;;;;;6092263;23;20365;-82
2022/08/29 04:51:44;;;;;;;3.83;2.50;;;25.10;48.80;;;;;;6070422;23;20373;-83
2022/08/29 04:54:24;;;;;;;2.90;2.17;;;25.10;48.80;;;;;;6071663;23;20375;-83
2022/08/29 04:56:58;;;;;;;3.30;2.20;;;25.10;48.70;;;;;;6067177;23;20375;-83
2022/08/29 04:59:28;;;;;;;2.83;2.50;;;25.10;48.70;;;;;;6078327;23;20422;-83
2022/08/29 05:01:55;;;;;;;2.50;1.87;;;25.10;48.70;;;;;;6067951;23;20466;-83
2022/08/29 05:04:27;;;;;;;2.87;2.17;;;25.10;48.80;;;;;;6067488;23;20394;-83
2022/08/29 05:06:59;;;;;;;4.40;2.47;;;25.10;48.80;;;;;;6090096;23;20383;-83
2022/08/29 05:09:28;;;;;;;3.67;2.37;;;25.10;48.80;;;;;;6067897;23;20391;-84
2022/08/29 05:11:57;;;;;;;4.33;2.47;;;25.10;48.70;;;;;;6068186;23;20387;-83
2022/08/29 05:15:21;;;;;;;5.40;2.53;;;25.10;48.80;;;;;;6068351;23;20436;-83
2022/08/29 05:17:59;;;;;;;3.63;2.03;;;25.10;48.70;;;;;;6005903;24;20422;-82
2022/08/29 05:20:39;;;;;;;3.47;2.50;;;25.10;48.80;;;;;;6006539;24;20400;-83
2022/08/29 05:23:16;;;;;;;3.57;2.57;;;25.10;48.80;;;;;;6017317;23;20361;-83
2022/08/29 05:25:48;;;;;;;4.40;2.90;;;25.00;48.70;;;;;;6010341;23;20380;-83
2022/08/29 05:28:15;;;;;;;2.87;2.57;;;25.00;48.70;;;;;;6034747;23;20381;-82
2022/08/29 05:30:46;;;;;;;4.03;2.97;;;25.00;48.60;;;;;;6033189;23;20384;-82
2022/08/29 05:33:16;;;;;;;2.67;2.43;;;25.00;48.60;;;;;;6023836;23;20405;-82
2022/08/29 05:35:51;;;;;;;4.50;3.20;;;25.00;48.60;;;;;;6033929;23;21420;-82
2022/08/29 05:38:20;;;;;;;2.47;2.00;;;25.00;48.60;;;;;;6036153;23;20430;-82
2022/08/29 05:40:52;;;;;;;3.40;2.30;;;25.00;48.60;;;;;;6034526;23;20361;-82
2022/08/29 05:46:40;;;;;;;3.70;2.83;;;25.00;48.60;;;;;;6052311;23;20428;-83
2022/08/29 05:49:13;;;;;;;5.80;2.60;;;25.00;48.60;;;;;;6125989;23;20365;-82
2022/08/29 05:51:54;;;;;;;5.53;2.87;;;24.90;48.60;;;;;;6151487;23;20362;-81
2022/08/29 05:54:22;;;;;;;5.87;2.87;;;24.90;48.60;;;;;;6101954;23;20389;-82
2022/08/29 05:56:52;;;;;;;4.60;2.50;;;24.90;48.60;;;;;;6125208;23;20444;-82
2022/08/29 05:59:23;;;;;;;2.37;2.17;;;24.90;48.70;;;;;;6124503;23;20421;-81
2022/08/29 06:02:18;;;;;;;4.40;2.70;;;24.90;48.70;;;;;;6097473;23;20461;-82
2022/08/29 06:04:51;;;;;;;4.43;2.37;;;25.00;48.80;;;;;;6123705;23;20413;-81
2022/08/29 06:07:29;;;;;;;5.27;2.43;;;24.90;48.80;;;;;;6124956;23;20420;-82
2022/08/29 06:09:57;;;;;;;2.97;2.40;;;24.90;48.80;;;;;;6124787;23;20433;-83
2022/08/29 06:12:27;;;;;;;5.13;2.33;;;24.90;48.90;;;;;;6122454;23;20373;-82
2022/08/29 06:15:01;;;;;;;3.07;2.40;;;24.90;48.90;;;;;;6121789;23;20384;-82
2022/08/29 06:17:50;;;;;;;3.00;2.40;;;24.90;48.80;;;;;;6125326;23;20376;-82
2022/08/29 06:20:27;;;;;;;4.63;2.57;;;24.90;48.80;;;;;;6151203;23;20405;-82
2022/08/29 06:23:19;;;;;;;2.90;2.27;;;24.90;48.80;;;;;;6050474;23;20380;-82
2022/08/29 06:25:56;;;;;;;3.00;2.23;;;24.90;48.80;;;;;;6125061;23;20369;-82
2022/08/29 06:28:46;;;;;;;3.07;2.50;;;24.90;48.80;;;;;;6129626;23;20428;-82
2022/08/29 06:31:25;;;;;;;2.57;1.90;;;24.90;48.90;;;;;;6145591;23;20388;-82
2022/08/29 06:34:13;;;;;;;3.70;2.07;;;24.90;49.00;;;;;;6146968;23;20384;-82
2022/08/29 06:36:42;;;;;;;3.70;2.40;;;24.90;49.00;;;;;;6145110;23;20381;-82
2022/08/29 06:39:11;;;;;;;2.50;2.03;;;24.90;49.00;;;;;;6120665;23;20432;-82
2022/08/29 06:41:39;;;;;;;4.37;2.40;;;24.90;49.00;;;;;;6146238;23;20393;-82
2022/08/29 06:44:15;;;;;;;2.93;2.63;;;24.90;49.00;;;;;;6121011;23;20752;-83
2022/08/29 06:46:47;;;;;;;4.60;2.60;;;24.90;49.00;;;;;;6120228;23;20404;-81
2022/08/29 06:49:14;;;;;;;3.03;2.60;;;25.00;49.20;;;;;;6121019;23;20385;-81
2022/08/29 06:51:45;;;;;;;4.00;2.50;;;25.00;49.10;;;;;;6120210;23;20389;-81
2022/08/29 06:54:17;;;;;;;3.70;2.47;;;25.00;49.10;;;;;;6144382;23;20396;-81
2022/08/29 06:56:43;;;;;;;2.50;2.20;;;25.00;49.20;;;;;;6119278;23;20380;-80
2022/08/29 06:59:11;;;;;;;5.10;2.40;;;25.00;49.20;;;;;;6120194;23;20843;-80
2022/08/29 07:01:46;;;;;;;3.00;2.50;;;25.00;49.20;;;;;;6121553;23;20165;-81
2022/08/29 07:04:20;;;;;;;3.07;2.13;;;25.00;49.10;;;;;;6146522;23;20421;-81
2022/08/29 07:06:48;;;;;;;2.87;2.50;;;25.00;49.20;;;;;;6146379;23;20366;-80
2022/08/29 07:09:18;;;;;;;3.93;2.40;;;25.00;49.10;;;;;;6096727;23;20383;-80
2022/08/29 07:11:44;;;;;;;3.33;1.90;;;25.00;49.10;;;;;;6121047;23;20400;-81
2022/08/29 07:14:15;;;;;;;2.93;2.10;;;25.10;49.70;;;;;;6120809;23;20448;-80
2022/08/29 07:16:41;;;;;;;3.10;2.37;;;25.10;49.10;;;;;;6120434;23;20389;-80
2022/08/29 07:19:09;;;;;;;3.40;2.50;;;25.10;49.10;;;;;;6121180;23;20431;-80
2022/08/29 07:21:35;;;;;;;6.03;2.67;;;25.10;49.10;;;;;;6123093;23;20377;-80
2022/08/29 07:24:02;;;;;;;3.07;2.30;;;25.10;49.10;;;;;;6118780;23;20373;-80
2022/08/29 07:26:35;;;;;;;3.97;2.33;;;25.10;49.10;;;;;;6098927;23;20389;-79
2022/08/29 07:29:09;;;;;;;3.63;2.80;;;25.10;49.10;;;;;;6122973;23;20385;-81
2022/08/29 07:31:42;;;;;;;4.70;2.33;;;25.10;49.20;;;;;;6148187;23;20380;-80
2022/08/29 07:34:08;;;;;;;2.90;2.20;;;25.10;49.20;;;;;;6148751;23;20383;-80
2022/08/29 07:36:37;;;;;;;3.27;2.10;;;25.10;49.10;;;;;;6123212;23;20381;-80
2022/08/29 07:39:08;;;;;;;4.10;2.60;;;25.10;49.10;;;;;;6123364;23;20427;-81
2022/08/29 07:41:37;;;;;;;4.33;2.70;;;25.10;49.20;;;;;;6122993;23;20384;-81
2022/08/29 07:44:10;;;;;;;5.50;2.77;;;25.10;49.20;;;;;;6122921;23;20752;-80
2022/08/29 07:46:45;;;;;;;4.27;2.43;;;25.10;49.20;;;;;;6122655;23;20408;-81
2022/08/29 07:49:15;;;;;;;2.47;2.00;;;25.10;49.10;;;;;;6123540;23;20380;-80
2022/08/29 07:51:45;;;;;;;3.93;2.20;;;25.10;49.10;;;;;;6097813;23;20389;-82
2022/08/29 07:54:15;;;;;;;5.93;2.70;;;25.10;49.20;;;;;;6121730;23;20373;-81
2022/08/29 07:56:46;;;;;;;4.20;2.57;;;25.10;49.20;;;;;;6146649;23;20385;-82
2022/08/29 07:59:14;;;;;;;2.73;2.50;;;25.10;49.20;;;;;;6146463;23;20450;-82
2022/08/29 08:01:43;;;;;;;4.00;2.33;;;25.10;49.10;;;;;;6120756;23;20420;-82
2022/08/29 08:04:14;;;;;;;3.03;2.73;;;25.10;49.20;;;;;;6121099;23;20662;-82
2022/08/29 08:06:48;;;;;;;3.60;2.80;;;25.10;49.20;;;;;;6121060;23;20381;-82
2022/08/29 08:09:14;;;;;;;4.57;2.90;;;25.10;49.30;;;;;;6118103;23;20376;-82
2022/08/29 08:11:44;;;;;;;3.83;2.40;;;25.10;49.20;;;;;;6118857;23;20416;-82
2022/08/29 08:14:11;;;;;;;3.50;2.13;;;25.10;49.30;;;;;;6116948;23;20387;-82
2022/08/29 08:16:40;;;;;;;5.37;2.50;;;25.10;49.20;;;;;;6117587;23;20389;-82
2022/08/29 08:19:06;;;;;;;4.07;2.37;;;25.20;49.30;;;;;;6143511;23;20906;-80
2022/08/29 08:21:37;;;;;;;5.30;2.93;;;25.20;49.20;;;;;;6116591;23;20404;-83
2022/08/29 08:24:51;;;;;;;3.83;2.70;;;25.20;49.20;;;;;;6143268;23;20173;-82
2022/08/29 08:27:54;;;;;;;4.67;2.90;;;25.20;49.20;;;;;;6112026;23;20392;-82
2022/08/29 08:30:23;;;;;;;3.00;2.57;;;25.20;49.20;;;;;;6118310;23;20377;-83
2022/08/29 08:33:56;;;;;;;6.00;2.87;;;25.10;49.20;;;;;;6118186;23;20772;-84
2022/08/29 08:36:32;;;;;;;5.17;2.63;;;25.20;49.20;;;;;;6117123;23;20866;-82
2022/08/29 08:39:04;;;;;;;3.40;2.40;;;25.20;49.30;;;;;;6093799;23;20429;-85
2022/08/29 08:41:49;;;;;;;6.60;2.83;;;25.20;49.30;;;;;;6119133;23;20380;-83
2022/08/29 08:44:57;;;;;;;7.93;2.50;;;25.20;49.20;;;;;;6118240;23;20391;-85
2022/08/29 08:47:31;;;;;;;3.50;2.70;;;25.20;49.20;;;;;;6108826;23;20385;-83
2022/08/29 08:54:11;;;;;;;3.70;2.73;;;25.20;49.20;;;;;;6082792;23;20402;-87
2022/08/29 08:56:48;;;;;;;5.50;2.70;;;25.20;49.30;;;;;;5996634;24;20400;-82
2022/08/29 08:59:42;;;;;;;6.07;2.90;;;25.20;49.20;;;;;;5998213;24;20429;-81
2022/08/29 09:02:44;;;;;;;;;;;;;;;;;;;;;
2022/08/29 09:05:39;;;;;;;3.20;2.83;;;25.20;49.20;;;;;;5999301;23;20424;-82
2022/08/29 09:12:36;;;;;;;;;;;;;;;;;;;;;
2022/08/29 09:19:28;;;;;;;;;;;;;;;;;;;;;
2022/08/29 09:22:29;;;;;;;6.23;2.53;;;25.20;49.30;;;;;;5944854;24;20384;-86
2022/08/29 09:25:40;;;;;;;5.93;2.93;;;25.20;49.20;;;;;;5920907;24;20424;-86
2022/08/29 09:31:37;;;;;;;3.73;2.40;;;25.20;49.20;;;;;;5810649;24;20359;-86
2022/08/29 09:34:37;;;;;;;3.60;2.10;;;25.20;49.20;;;;;;5853882;24;20405;-86
2022/08/29 09:37:49;;;;;;;5.10;2.83;;;25.30;49.30;;;;;;5864479;24;20378;-87
2022/08/29 09:47:44;;;;;;;4.10;2.57;;;25.30;49.30;;;;;;5811668;24;20448;-85
2022/08/29 09:50:42;;;;;;;5.33;2.70;;;25.30;49.30;;;;;;5803529;24;20419;-84
2022/08/29 10:00:39;;;;;;;4.17;2.63;;;25.30;49.30;;;;;;5838413;24;20459;-85
2022/08/29 10:06:52;;;;;;;2.90;2.30;;;25.30;49.40;;;;;;5919765;24;20387;-86
2022/08/29 10:09:42;;;;;;;4.13;2.80;;;25.30;49.40;;;;;;5919583;24;20502;-85
2022/08/29 10:12:17;;;;;;;6.03;3.50;;;25.30;49.40;;;;;;5970073;24;20412;-85
2022/08/29 10:18:27;;;;;;;4.60;2.73;;;25.30;49.20;;;;;;6147333;23;20384;-84
2022/08/29 10:21:27;;;;;;;4.27;2.73;;;25.30;49.20;;;;;;6119173;23;20871;-84
2022/08/29 10:31:17;;;;;;;3.73;3.00;;;25.40;49.10;;;;;;6089278;23;20832;-85
2022/08/29 10:34:23;;;;;;;4.57;3.33;;;25.30;49.20;;;;;;6064759;23;20379;-85
2022/08/29 10:40:50;;;;;;;5.63;4.20;;;25.40;49.50;;;;;;6059407;23;20431;-86
2022/08/29 10:50:47;;;;;;;6.00;4.50;;;25.40;49.40;;;;;;6033545;23;20363;-85
2022/08/29 10:53:44;;;;;;;6.17;4.43;;;25.40;49.40;;;;;;6007611;23;20392;-85
2022/08/29 10:59:58;;;;;;;4.70;4.07;;;25.40;49.30;;;;;;6031466;23;20449;-86
2022/08/29 11:03:19;;;;;;;4.83;4.10;;;25.40;49.30;;;;;;6019047;23;21019;-86
2022/08/29 11:06:16;;;;;;;6.77;4.53;;;25.40;49.30;;;;;;5975170;24;20387;-86
2022/08/29 11:09:14;;;;;;;5.83;4.23;;;25.40;49.20;;;;;;5974687;24;20390;-86
2022/08/29 11:12:24;;;;;;;5.40;4.43;;;25.40;49.20;;;;;;5972981;24;20393;-86
2022/08/29 11:15:44;;;;;;;5.63;3.60;;;25.40;49.30;;;;;;5951586;24;20423;-86
2022/08/29 11:18:56;;;;;;;5.03;4.03;;;25.40;49.20;;;;;;5936069;24;20400;-86
2022/08/29 11:21:56;;;;;;;4.63;3.63;;;25.50;49.20;;;;;;5974400;24;20398;-85
2022/08/29 11:24:43;;;;;;;4.50;3.50;;;25.50;49.20;;;;;;6002080;24;20396;-85
2022/08/29 11:27:59;;;;;;;5.83;3.70;;;25.50;49.20;;;;;;5979263;24;20373;-86
2022/08/29 11:31:03;;;;;;;5.43;4.00;;;25.50;49.20;;;;;;5979478;24;20416;-86
2022/08/29 11:34:18;;;;;;;;;;;;;;;;;;;;;
2022/08/29 11:37:24;;;;;;;4.00;3.40;;;25.50;49.20;;;;;;6000962;24;20381;-85
2022/08/29 11:44:00;;;;;;;5.27;3.30;;;25.50;49.20;;;;;;6118219;23;20362;-86
2022/08/29 11:47:09;;;;;;;4.13;3.30;;;25.50;49.10;;;;;;6116729;23;20378;-86
2022/08/29 11:56:48;;;;;;;4.30;2.83;;;25.50;48.80;;;;;;6117910;23;20426;-85
2022/08/29 11:59:47;;;;;;;5.40;2.83;;;25.50;48.60;;;;;;6087259;23;20417;-85
2022/08/29 12:02:41;;;;;;;4.60;3.20;;;25.50;48.30;;;;;;6087234;23;20399;-85
2022/08/29 12:05:47;;;;;;;5.23;3.00;;;25.50;48.20;;;;;;6087546;23;20383;-85
2022/08/29 12:08:34;;;;;;;4.80;3.10;;;25.50;48.30;;;;;;6051847;23;20382;-86
2022/08/29 12:18:36;;;;;;;6.10;4.20;;;25.60;48.70;;;;;;6088814;23;20366;-85
2022/08/29 12:21:46;;;;;;;5.50;3.17;;;25.50;48.70;;;;;;6088730;23;20398;-86
2022/08/29 12:24:58;;;;;;;8.03;3.87;;;25.60;48.80;;;;;;6088876;23;20390;-86
2022/08/29 12:28:04;;;;;;;4.57;3.70;;;25.60;48.80;;;;;;6088952;23;20374;-86
2022/08/29 12:34:21;;;;;;;3.87;2.80;;;25.60;48.90;;;;;;6064985;23;20427;-85
2022/08/29 12:37:28;;;;;;;5.13;3.87;;;25.60;48.80;;;;;;6087719;23;20390;-85
2022/08/29 12:40:28;;;;;;;4.50;3.13;;;25.60;48.40;;;;;;6093944;23;20422;-85
2022/08/29 12:47:36;;;;;;;;;;;;;;;;;;;;;
2022/08/29 12:53:53;;;;;;;5.10;2.83;;;25.60;48.30;;;;;;6088975;23;20330;-85
2022/08/29 12:56:33;;;;;;;4.47;2.87;;;25.60;48.10;;;;;;6089499;23;20407;-84
2022/08/29 12:59:11;;;;;;;4.13;3.27;;;25.60;48.10;;;;;;6085967;23;20418;-86
2022/08/29 13:01:59;;;;;;;3.60;3.20;;;25.60;47.90;;;;;;6064525;23;20387;-85
2022/08/29 13:08:49;;;;;;;4.30;2.73;;;25.70;47.90;;;;;;6088767;23;20361;-86
2022/08/29 13:11:40;;;;;;;3.03;2.67;;;25.60;48.10;;;;;;6003169;24;20453;-85
2022/08/29 13:14:13;;;;;;;5.67;4.13;;;25.60;48.00;;;;;;6001751;24;20393;-85
2022/08/29 13:17:14;;;;;;;4.00;2.73;;;25.60;48.10;;;;;;6000344;24;20468;-84
2022/08/29 13:20:24;;;;;;;5.43;2.70;;;25.70;48.00;;;;;;6000564;23;20432;-85
2022/08/29 13:23:23;;;;;;;3.37;3.00;;;25.70;47.90;;;;;;6057970;23;20390;-84
2022/08/29 13:26:11;;;;;;;4.60;3.17;;;25.70;48.00;;;;;;6020390;23;20462;-86
2022/08/29 13:29:19;;;;;;;4.13;3.73;;;25.70;48.20;;;;;;6059611;23;20392;-84
2022/08/29 13:42:34;;;;;;;4.03;2.93;;;25.60;48.10;;;;;;5974876;23;20431;-85
2022/08/29 13:48:22;;;;;;;4.40;3.20;;;25.70;48.00;;;;;;5933154;24;20391;-86
2022/08/29 13:51:17;;;;;;;2.90;2.47;;;25.70;47.70;;;;;;5947480;24;20391;-86
2022/08/29 14:14:31;;;;;;;;;;;;;;;;;;;;;
2022/08/29 14:20:36;;;;;;;2.97;2.57;;;25.70;48.00;;;;;;5919526;24;20511;-86
2022/08/29 14:23:11;;;;;;;3.23;2.90;;;25.70;48.10;;;;;;5918817;24;20377;-86
2022/08/29 14:25:56;;;;;;;3.03;2.50;;;25.70;48.20;;;;;;5920011;24;20380;-86
2022/08/29 14:28:45;;;;;;;4.87;2.77;;;25.70;48.20;;;;;;5896322;24;20412;-86
2022/08/29 14:31:30;;;;;;;3.63;2.63;;;25.70;48.20;;;;;;5939812;24;20407;-85
2022/08/29 14:44:34;;;;;;;2.50;2.30;;;25.70;48.00;;;;;;6003707;24;20368;-85
2022/08/29 14:50:51;;;;;;;3.60;2.83;;;25.70;48.10;;;;;;6091640;23;20361;-85
2022/08/29 14:53:42;;;;;;;3.83;2.37;;;25.70;48.10;;;;;;6070685;23;20390;-84
2022/08/29 14:56:26;;;;;;;3.10;2.37;;;25.70;47.90;;;;;;6090179;23;20390;-84
2022/08/29 14:59:28;;;;;;;4.10;3.20;;;25.70;48.00;;;;;;6117563;23;20413;-84
2022/08/29 15:02:29;;;;;;;3.00;2.70;;;25.70;48.00;;;;;;6096006;23;20377;-85
2022/08/29 15:08:21;;;;;;;6.23;2.60;;;25.80;47.90;;;;;;6138772;23;20441;-85
2022/08/29 15:11:02;;;;;;;4.80;2.50;;;25.70;48.00;;;;;;6122340;23;20380;-84
2022/08/29 15:16:59;;;;;;;8.30;3.23;;;25.80;48.10;;;;;;6117275;23;20350;-85
2022/08/29 15:19:35;;;;;;;8.03;3.10;;;25.80;48.10;;;;;;6058384;23;20417;-84
2022/08/29 15:22:45;;;;;;;8.20;3.20;;;25.80;48.20;;;;;;6117776;23;20655;-85
2022/08/29 15:25:19;;;;;;;5.80;3.00;;;25.80;48.20;;;;;;6031324;23;20440;-85
2022/08/29 15:31:07;;;;;;;4.17;2.17;;;25.80;48.00;;;;;;6117232;23;20410;-85
2022/08/29 15:33:49;;;;;;;3.57;2.37;;;25.80;47.80;;;;;;6116606;23;20386;-84
2022/08/29 15:36:21;;;;;;;4.50;2.33;;;25.80;47.90;;;;;;6052945;23;20393;-82
2022/08/29 15:38:53;;;;;;;5.77;3.00;;;25.80;47.80;;;;;;6085751;23;20454;-82
2022/08/29 15:41:33;;;;;;;2.87;2.60;;;25.80;47.80;;;;;;6087513;23;20454;-81
2022/08/29 15:44:07;;;;;;;3.63;2.60;;;25.80;47.80;;;;;;6111261;23;20374;-82
2022/08/29 15:46:40;;;;;;;4.10;3.10;;;25.80;47.70;;;;;;6088083;23;20404;-82
2022/08/29 15:49:39;;;;;;;3.60;3.00;;;25.80;47.50;;;;;;6087622;23;20700;-82
2022/08/29 15:59:00;;;;;;;2.60;2.40;;;25.80;47.70;;;;;;6025962;23;20489;-82
2022/08/29 16:08:16;;;;;;;4.87;2.50;;;25.80;47.50;;;;;;5970306;23;20387;-83
2022/08/29 16:10:45;;;;;;;4.27;2.50;;;25.80;47.40;;;;;;5970158;24;20382;-83
2022/08/29 16:13:19;;;;;;;3.67;2.40;;;25.80;47.50;;;;;;5970380;24;20378;-85
2022/08/29 16:15:50;;;;;;;4.03;2.70;;;25.80;47.40;;;;;;5947786;24;20419;-85
2022/08/29 16:18:43;;;;;;;3.97;3.00;;;25.80;47.50;;;;;;5951076;24;20391;-85
2022/08/29 16:21:39;;;;;;;5.30;2.93;;;25.80;47.40;;;;;;5975519;24;20382;-85
2022/08/29 16:24:51;;;;;;;3.53;2.60;;;25.80;47.50;;;;;;5923252;24;20424;-85
2022/08/29 16:27:49;;;;;;;3.80;3.10;;;25.80;47.40;;;;;;5971200;24;20820;-85
2022/08/29 16:30:54;;;;;;;;;;;;;;;;;;;;;
2022/08/29 16:34:07;;;;;;;4.10;3.70;;;25.80;47.50;;;;;;6031750;23;20404;-85
2022/08/29 16:36:52;;;;;;;2.97;2.50;;;25.80;47.40;;;;;;6032099;23;20392;-85
2022/08/29 16:39:27;;;;;;;4.37;3.17;;;25.80;47.50;;;;;;6031844;23;20424;-85
2022/08/29 16:42:06;;;;;;;3.43;2.63;;;25.80;47.50;;;;;;6120575;23;20383;-85
2022/08/29 16:48:24;;;;;;;3.80;2.40;;;25.80;47.60;;;;;;6128581;23;20422;-85
2022/08/29 16:50:54;;;;;;;5.37;3.70;;;25.80;47.60;;;;;;6123027;23;20376;-85
2022/08/29 16:53:27;;;;;;;3.30;2.37;;;25.80;47.60;;;;;;6148113;23;20389;-84
2022/08/29 16:55:57;;;;;;;3.40;2.40;;;25.80;47.60;;;;;;6148715;23;20361;-84